Time;durP1;ratioP1;P1;durP2;ratioP2;P2;SDS_P1;SDS_P2;PMS_P1;PMS_P2;Temp;Humidity;BMP_temperature;BMP_pressure;BME280_temperature;BME280_humidity;BME280_pressure;Samples;Min_cycle;Max_cycle;Signal;HPM_P1;HPM_P2
2022/07/06 00:00:33;;;;;;;3.65;1.40;;;24.00;44.10;;;;;;7424421;19;20018;-90
2022/07/06 00:03:04;;;;;;;4.57;1.70;;;24.00;43.80;;;;;;7423651;19;20030;-89
2022/07/06 00:05:33;;;;;;;7.95;1.40;;;24.00;43.80;;;;;;7421097;19;20017;-89
2022/07/06 00:08:02;;;;;;;2.45;1.25;;;24.00;43.80;;;;;;7417640;19;20018;-89
2022/07/06 00:10:30;;;;;;;2.78;1.40;;;24.00;43.80;;;;;;7417540;19;20010;-89
2022/07/06 00:12:59;;;;;;;4.05;1.52;;;23.90;43.90;;;;;;7421421;19;20006;-89
2022/07/06 00:15:28;;;;;;;3.25;1.90;;;23.90;44.10;;;;;;7415320;19;20025;-89
2022/07/06 00:17:57;;;;;;;1.75;1.33;;;23.90;44.20;;;;;;7413400;19;20104;-90
2022/07/06 00:20:28;;;;;;;2.90;1.40;;;23.90;44.30;;;;;;7413210;19;20042;-90
2022/07/06 00:22:57;;;;;;;;;;;23.90;44.30;;;;;;7416842;19;20478;-90
2022/07/06 00:25:25;;;;;;;3.00;1.50;;;23.90;44.40;;;;;;7416782;19;19945;-89
2022/07/06 00:27:54;;;;;;;3.70;1.50;;;23.90;44.30;;;;;;7412928;19;20007;-89
2022/07/06 00:30:23;;;;;;;2.38;1.30;;;23.90;44.50;;;;;;7417649;19;20010;-89
2022/07/06 00:32:52;;;;;;;4.45;1.55;;;23.90;44.60;;;;;;7414561;19;20014;-89
2022/07/06 00:35:20;;;;;;;2.65;1.40;;;23.90;44.70;;;;;;7414747;19;20011;-89
2022/07/06 00:37:52;;;;;;;4.05;1.35;;;23.90;44.70;;;;;;7415751;19;20015;-89
2022/07/06 00:40:20;;;;;;;;;;;23.80;44.80;;;;;;7405871;19;20032;-88
2022/07/06 00:42:50;;;;;;;4.05;1.42;;;23.90;45.00;;;;;;7407094;19;20563;-88
2022/07/06 00:45:21;;;;;;;5.43;1.65;;;23.80;44.90;;;;;;7407723;19;20014;-88
2022/07/06 00:47:49;;;;;;;3.97;1.60;;;23.80;44.90;;;;;;7412958;19;20010;-88
2022/07/06 00:50:20;;;;;;;3.70;1.52;;;23.80;44.90;;;;;;7414832;19;20721;-88
2022/07/06 00:52:54;;;;;;;2.53;1.73;;;23.80;45.10;;;;;;7413636;19;20017;-89
2022/07/06 00:55:24;;;;;;;3.58;1.60;;;23.70;45.10;;;;;;7426913;19;20034;-88
2022/07/06 00:57:53;;;;;;;2.92;1.40;;;23.70;45.20;;;;;;7425625;19;20018;-88
2022/07/06 01:00:24;;;;;;;2.22;1.30;;;23.70;45.40;;;;;;7413251;19;20010;-88
2022/07/06 01:02:53;;;;;;;2.45;1.50;;;23.60;45.40;;;;;;7412876;19;20018;-88
2022/07/06 01:05:22;;;;;;;2.28;1.25;;;23.60;45.50;;;;;;7409925;19;20014;-88
2022/07/06 01:07:56;;;;;;;6.65;1.88;;;23.50;45.60;;;;;;7406247;19;20118;-87
2022/07/06 01:10:25;;;;;;;4.47;1.70;;;23.40;45.80;;;;;;7406083;19;20015;-87
2022/07/06 01:12:53;;;;;;;3.72;1.30;;;23.30;45.90;;;;;;7404057;19;20041;-87
2022/07/06 01:15:24;;;;;;;3.33;1.40;;;23.30;46.00;;;;;;7404569;19;20583;-87
2022/07/06 01:17:54;;;;;;;2.25;1.13;;;23.20;46.20;;;;;;7405851;19;20014;-87
2022/07/06 01:20:27;;;;;;;7.13;1.90;;;23.20;46.30;;;;;;7402873;19;20014;-87
2022/07/06 01:23:01;;;;;;;2.17;1.48;;;23.20;46.40;;;;;;7403071;19;20027;-87
2022/07/06 01:25:30;;;;;;;3.10;1.40;;;23.10;46.40;;;;;;7403978;19;20438;-87
2022/07/06 01:27:59;;;;;;;3.33;1.67;;;23.10;46.60;;;;;;7403485;19;20014;-87
2022/07/06 01:30:28;;;;;;;7.38;1.60;;;23.00;46.60;;;;;;7405131;19;20359;-87
2022/07/06 01:32:57;;;;;;;3.58;1.50;;;23.00;46.80;;;;;;7404761;19;20015;-87
2022/07/06 01:35:31;;;;;;;2.63;1.40;;;22.90;47.00;;;;;;7402843;19;20031;-88
2022/07/06 01:38:00;;;;;;;3.58;1.70;;;22.80;47.10;;;;;;7406474;19;20011;-88
2022/07/06 01:40:29;;;;;;;3.15;1.70;;;22.70;47.40;;;;;;7407490;19;20027;-89
2022/07/06 01:42:58;;;;;;;2.80;1.40;;;22.60;47.50;;;;;;7408253;19;20019;-87
2022/07/06 01:45:26;;;;;;;4.60;1.50;;;22.60;47.80;;;;;;7408618;19;20086;-88
2022/07/06 01:47:55;;;;;;;3.30;1.67;;;22.50;47.80;;;;;;7413471;19;20019;-88
2022/07/06 01:50:24;;;;;;;4.43;2.10;;;22.50;47.80;;;;;;7419299;19;20018;-88
2022/07/06 01:52:55;;;;;;;4.43;1.80;;;22.50;47.90;;;;;;7421176;19;20013;-87
2022/07/06 01:55:24;;;;;;;3.92;1.80;;;22.50;47.90;;;;;;7415783;19;20355;-89
2022/07/06 01:57:53;;;;;;;3.47;1.80;;;22.50;48.00;;;;;;7408762;19;20018;-89
2022/07/06 02:00:22;;;;;;;8.38;1.77;;;22.50;47.90;;;;;;7401690;19;20014;-88
2022/07/06 02:02:50;;;;;;;6.60;1.63;;;22.60;47.90;;;;;;7403514;19;20018;-88
2022/07/06 02:05:19;;;;;;;3.78;1.70;;;22.60;47.90;;;;;;7404839;19;20017;-88
2022/07/06 02:07:48;;;;;;;2.25;1.75;;;22.60;47.90;;;;;;7405844;19;20014;-88
2022/07/06 02:10:19;;;;;;;3.75;1.52;;;22.50;48.70;;;;;;7405785;19;20014;-88
2022/07/06 02:12:48;;;;;;;5.45;1.92;;;22.50;48.20;;;;;;7406472;19;20018;-88
2022/07/06 02:15:17;;;;;;;4.95;2.05;;;22.50;48.20;;;;;;7402535;19;20039;-88
2022/07/06 02:17:46;;;;;;;3.33;1.65;;;22.40;48.30;;;;;;7401019;19;20082;-87
2022/07/06 02:20:15;;;;;;;3.92;1.80;;;22.30;48.40;;;;;;7400925;19;20024;-88
2022/07/06 02:22:44;;;;;;;4.97;1.70;;;22.30;48.50;;;;;;7399383;19;20015;-87
2022/07/06 02:25:12;;;;;;;6.25;1.67;;;22.30;48.60;;;;;;7398749;19;20469;-88
2022/07/06 02:27:44;;;;;;;4.07;1.98;;;22.30;48.80;;;;;;7402635;19;20027;-87
2022/07/06 02:30:13;;;;;;;4.38;2.25;;;22.30;48.80;;;;;;7401849;19;20022;-89
2022/07/06 02:32:42;;;;;;;2.90;1.90;;;22.30;48.80;;;;;;7402315;19;20485;-87
2022/07/06 02:35:11;;;;;;;5.60;1.77;;;22.40;48.70;;;;;;7401671;19;20015;-86
2022/07/06 02:37:40;;;;;;;4.93;1.92;;;22.40;48.70;;;;;;7401605;19;20025;-87
2022/07/06 02:40:11;;;;;;;4.82;1.70;;;22.40;48.70;;;;;;7400751;19;20027;-87
2022/07/06 02:42:43;;;;;;;7.32;1.75;;;22.40;48.70;;;;;;7403540;19;20047;-87
2022/07/06 02:45:13;;;;;;;3.10;1.60;;;22.40;48.70;;;;;;7403337;19;20014;-87
2022/07/06 02:47:41;;;;;;;2.50;1.75;;;22.40;48.70;;;;;;7405150;19;20014;-87
2022/07/06 02:50:11;;;;;;;4.78;1.58;;;22.40;48.60;;;;;;7406919;19;20027;-87
2022/07/06 02:52:39;;;;;;;4.97;1.55;;;22.40;48.80;;;;;;7409137;19;20010;-87
2022/07/06 02:55:09;;;;;;;2.55;1.52;;;22.40;48.80;;;;;;7406099;19;20010;-87
2022/07/06 02:57:38;;;;;;;2.80;1.73;;;22.40;48.80;;;;;;7414390;19;20010;-86
2022/07/06 03:00:12;;;;;;;5.35;1.70;;;22.40;48.80;;;;;;7412815;19;20024;-87
2022/07/06 03:02:41;;;;;;;4.25;1.67;;;22.40;48.80;;;;;;7408812;19;20573;-87
2022/07/06 03:05:10;;;;;;;3.15;1.60;;;22.40;48.70;;;;;;7399222;19;20040;-87
2022/07/06 03:07:39;;;;;;;4.60;2.00;;;22.40;48.60;;;;;;7401241;19;20032;-87
2022/07/06 03:10:08;;;;;;;3.38;1.73;;;22.40;48.70;;;;;;7404687;19;20019;-87
2022/07/06 03:12:37;;;;;;;3.50;1.60;;;22.30;48.80;;;;;;7410920;19;20018;-87
2022/07/06 03:15:09;;;;;;;5.00;1.80;;;22.30;48.90;;;;;;7412823;19;20011;-88
2022/07/06 03:17:38;;;;;;;5.72;1.70;;;22.30;49.10;;;;;;7417013;19;20026;-87
2022/07/06 03:20:08;;;;;;;5.05;1.80;;;22.20;49.10;;;;;;7410577;19;20022;-88
2022/07/06 03:22:37;;;;;;;4.88;1.67;;;22.20;49.30;;;;;;7407674;19;20078;-88
2022/07/06 03:25:09;;;;;;;3.47;1.50;;;22.20;49.20;;;;;;7409087;19;20031;-87
2022/07/06 03:27:38;;;;;;;3.15;1.60;;;22.20;49.20;;;;;;7410804;19;20010;-87
2022/07/06 03:30:10;;;;;;;5.60;1.92;;;22.20;49.10;;;;;;7407404;19;20022;-87
2022/07/06 03:32:39;;;;;;;5.10;1.95;;;22.20;49.20;;;;;;7407053;19;20014;-88
2022/07/06 03:35:08;;;;;;;8.55;2.28;;;22.20;49.30;;;;;;7406204;19;20436;-87
2022/07/06 03:37:37;;;;;;;3.72;1.77;;;22.10;49.40;;;;;;7410173;19;20014;-87
2022/07/06 03:40:07;;;;;;;6.80;2.13;;;22.10;49.40;;;;;;7410204;19;20018;-87
2022/07/06 03:42:36;;;;;;;5.95;2.40;;;22.10;49.30;;;;;;7415033;19;20028;-87
2022/07/06 03:45:05;;;;;;;4.53;2.00;;;22.00;49.40;;;;;;7409350;19;20015;-87
2022/07/06 03:47:37;;;;;;;6.38;2.15;;;22.00;49.70;;;;;;7412317;19;20031;-87
2022/07/06 03:50:06;;;;;;;2.65;1.83;;;21.90;49.60;;;;;;7405960;19;20358;-86
2022/07/06 03:52:39;;;;;;;4.68;1.60;;;22.00;49.70;;;;;;7405627;19;20074;-86
2022/07/06 03:55:10;;;;;;;4.55;1.80;;;21.90;49.70;;;;;;7402773;19;20025;-86
2022/07/06 03:57:40;;;;;;;5.25;1.70;;;21.90;49.70;;;;;;7404937;19;20542;-86
2022/07/06 04:00:11;;;;;;;2.42;1.77;;;21.90;49.70;;;;;;7408917;19;20022;-87
2022/07/06 04:02:42;;;;;;;7.60;2.03;;;21.90;49.90;;;;;;7404475;19;20027;-86
2022/07/06 04:05:11;;;;;;;4.95;1.90;;;21.80;50.00;;;;;;7412314;19;20019;-88
2022/07/06 04:07:40;;;;;;;3.35;1.77;;;21.80;50.00;;;;;;7423968;19;20023;-89
2022/07/06 04:10:10;;;;;;;4.43;1.90;;;21.80;50.00;;;;;;7421388;19;20038;-88
2022/07/06 04:12:43;;;;;;;4.10;2.10;;;21.80;50.00;;;;;;7411249;19;20023;-88
2022/07/06 04:15:13;;;;;;;4.85;1.90;;;21.80;50.00;;;;;;7417552;19;20058;-88
2022/07/06 04:17:56;;;;;;;4.32;1.98;;;21.80;50.00;;;;;;7418050;19;20010;-88
2022/07/06 04:20:26;;;;;;;5.57;2.17;;;21.70;50.20;;;;;;7420440;19;20021;-89
2022/07/06 04:22:56;;;;;;;6.55;2.40;;;21.60;50.40;;;;;;7420467;19;20011;-89
2022/07/06 04:25:24;;;;;;;7.55;2.65;;;21.50;50.60;;;;;;7425278;19;20018;-89
2022/07/06 04:27:53;;;;;;;7.00;2.35;;;21.50;50.70;;;;;;7423335;19;20007;-89
2022/07/06 04:30:22;;;;;;;3.47;2.33;;;21.50;50.60;;;;;;7418935;19;20010;-87
2022/07/06 04:32:55;;;;;;;5.25;2.25;;;21.50;50.70;;;;;;7405030;19;20010;-88
2022/07/06 04:35:24;;;;;;;4.65;2.10;;;21.50;51.40;;;;;;7407583;19;20038;-88
2022/07/06 04:37:52;;;;;;;4.35;2.17;;;21.50;50.90;;;;;;7409396;19;20330;-87
2022/07/06 04:40:21;;;;;;;6.72;2.30;;;21.40;50.90;;;;;;7408754;19;20023;-87
2022/07/06 04:42:50;;;;;;;5.72;2.58;;;21.40;50.80;;;;;;7415502;19;20028;-87
2022/07/06 04:45:19;;;;;;;8.02;2.63;;;21.40;51.00;;;;;;7421981;19;20011;-87
2022/07/06 04:50:35;;;;;;;9.55;2.33;;;21.40;51.40;;;;;;7463761;19;20356;-88
2022/07/06 04:53:04;;;;;;;5.15;2.22;;;21.40;51.40;;;;;;7466753;19;20006;-88
2022/07/06 04:55:33;;;;;;;4.85;1.88;;;21.50;51.40;;;;;;7462063;19;20014;-88
2022/07/06 04:58:02;;;;;;;5.38;2.17;;;21.50;51.20;;;;;;7461881;19;20029;-87
2022/07/06 05:00:31;;;;;;;5.45;2.08;;;21.60;51.20;;;;;;7464721;19;20006;-87
2022/07/06 05:02:59;;;;;;;6.03;2.05;;;21.60;51.10;;;;;;7465101;19;20035;-87
2022/07/06 05:05:28;;;;;;;4.85;2.47;;;21.60;51.20;;;;;;7465721;19;20022;-88
2022/07/06 05:07:59;;;;;;;3.70;1.85;;;21.60;51.30;;;;;;7463126;19;20022;-88
2022/07/06 05:10:28;;;;;;;4.45;2.08;;;21.60;51.50;;;;;;7464565;19;20010;-88
2022/07/06 05:12:57;;;;;;;12.27;2.13;;;21.60;51.60;;;;;;7464722;19;19999;-89
2022/07/06 05:15:26;;;;;;;5.32;2.28;;;21.60;51.50;;;;;;7462871;19;20068;-88
2022/07/06 05:17:55;;;;;;;11.65;2.20;;;21.60;51.60;;;;;;7465677;19;20018;-88
2022/07/06 05:20:25;;;;;;;4.57;2.40;;;21.70;51.80;;;;;;7461437;19;20018;-88
2022/07/06 05:22:54;;;;;;;4.25;2.33;;;21.70;51.80;;;;;;7458057;19;20016;-88
2022/07/06 05:25:25;;;;;;;9.68;2.40;;;21.70;51.80;;;;;;7454729;19;20014;-88
2022/07/06 05:27:54;;;;;;;;;;;21.80;51.80;;;;;;7461769;19;20489;-88
2022/07/06 05:30:23;;;;;;;5.32;2.40;;;21.80;51.80;;;;;;7457263;19;19926;-88
2022/07/06 05:32:51;;;;;;;11.45;2.78;;;21.80;51.80;;;;;;7454897;19;20010;-88
2022/07/06 05:35:21;;;;;;;7.75;2.72;;;21.90;51.70;;;;;;7463861;19;20026;-88
2022/07/06 05:37:49;;;;;;;7.68;2.50;;;21.90;51.40;;;;;;7463656;19;20020;-88
2022/07/06 05:40:18;;;;;;;7.00;2.42;;;21.90;51.40;;;;;;7458717;19;20011;-87
2022/07/06 05:42:50;;;;;;;7.88;2.60;;;21.90;51.60;;;;;;7391903;19;20029;-87
2022/07/06 05:45:18;;;;;;;;;;;21.80;51.50;;;;;;7458405;19;20014;-87
2022/07/06 05:50:28;;;;;;;7.63;2.92;;;21.90;51.80;;;;;;7458741;19;20043;-89
2022/07/06 05:53:01;;;;;;;9.10;2.67;;;22.00;51.70;;;;;;7459203;19;20011;-88
2022/07/06 05:55:30;;;;;;;7.28;2.47;;;22.00;51.50;;;;;;7459346;19;20003;-88
2022/07/06 05:58:01;;;;;;;8.48;2.70;;;22.00;52.00;;;;;;7456126;19;20027;-88
2022/07/06 06:00:30;;;;;;;;;;;22.10;51.50;;;;;;7447272;19;20010;-88
2022/07/06 06:03:00;;;;;;;9.60;2.80;;;22.10;51.40;;;;;;7421317;19;19926;-89
2022/07/06 06:05:29;;;;;;;6.18;2.30;;;22.10;51.40;;;;;;7419487;19;20010;-88
2022/07/06 06:07:58;;;;;;;8.95;2.80;;;22.00;51.40;;;;;;7417052;19;20128;-88
2022/07/06 06:10:27;;;;;;;5.63;2.60;;;22.10;51.50;;;;;;7423143;19;20019;-89
2022/07/06 06:12:56;;;;;;;7.35;2.72;;;22.00;51.20;;;;;;7423678;19;20031;-89
2022/07/06 06:15:27;;;;;;;5.65;2.60;;;22.10;51.30;;;;;;7420208;19;20018;-88
2022/07/06 06:17:55;;;;;;;;;;;22.10;51.10;;;;;;7418519;19;20022;-88
2022/07/06 06:20:24;;;;;;;7.88;2.75;;;22.10;51.20;;;;;;7423856;19;19955;-88
2022/07/06 06:22:55;;;;;;;13.80;2.60;;;22.20;51.20;;;;;;7430321;19;20010;-89
2022/07/06 06:25:30;;;;;;;10.32;2.67;;;22.20;51.10;;;;;;7433253;19;20014;-89
2022/07/06 06:27:59;;;;;;;7.97;2.58;;;22.20;50.90;;;;;;7418681;19;20022;-88
2022/07/06 06:30:30;;;;;;;11.05;2.83;;;22.30;50.80;;;;;;7419079;19;20019;-88
2022/07/06 06:33:09;;;;;;;;;;;22.40;50.70;;;;;;7424071;19;20011;-89
2022/07/06 06:35:38;;;;;;;9.20;2.50;;;22.50;50.70;;;;;;7428910;19;19919;-89
2022/07/06 06:38:06;;;;;;;5.57;2.40;;;22.50;50.70;;;;;;7423657;19;20006;-89
2022/07/06 06:40:35;;;;;;;3.70;2.22;;;22.60;50.80;;;;;;7420809;19;20039;-88
2022/07/06 06:43:04;;;;;;;10.23;2.58;;;22.60;50.60;;;;;;7422359;19;20014;-89
2022/07/06 06:45:35;;;;;;;7.45;2.42;;;22.70;50.10;;;;;;7422933;19;20043;-88
2022/07/06 06:48:03;;;;;;;;;;;22.70;50.00;;;;;;7421288;19;20022;-88
2022/07/06 06:50:32;;;;;;;7.20;2.88;;;22.80;49.50;;;;;;7422730;19;19927;-88
2022/07/06 06:53:01;;;;;;;6.60;2.30;;;22.70;49.10;;;;;;7425264;19;20021;-88
2022/07/06 06:55:32;;;;;;;5.57;2.70;;;22.70;49.00;;;;;;7420182;19;20023;-87
2022/07/06 06:58:01;;;;;;;3.90;2.13;;;22.70;48.60;;;;;;7416071;19;20015;-90
2022/07/06 07:00:30;;;;;;;7.82;2.50;;;22.80;48.60;;;;;;7413805;19;20014;-92
2022/07/06 07:03:01;;;;;;;5.57;2.40;;;22.80;48.10;;;;;;7422188;19;20007;-87
2022/07/06 07:05:30;;;;;;;;;;;22.80;47.70;;;;;;7413584;19;20039;-90
2022/07/06 07:07:59;;;;;;;8.75;2.85;;;23.00;48.00;;;;;;7417825;19;19922;-89
2022/07/06 07:10:28;;;;;;;9.68;1.98;;;23.00;48.00;;;;;;7420840;19;20034;-89
2022/07/06 07:12:57;;;;;;;3.05;2.00;;;23.00;48.10;;;;;;7332443;19;21337;-89
2022/07/06 07:15:26;;;;;;;5.05;1.95;;;23.10;48.00;;;;;;7412727;19;20023;-90
2022/07/06 07:17:55;;;;;;;5.90;1.85;;;23.10;46.90;;;;;;7422931;19;20042;-88
2022/07/06 07:20:29;;;;;;;3.63;1.80;;;23.20;46.20;;;;;;7417521;19;20020;-89
2022/07/06 07:22:58;;;;;;;7.47;2.15;;;23.20;46.10;;;;;;7397679;19;20018;-86
2022/07/06 07:25:27;;;;;;;7.43;2.60;;;23.30;46.30;;;;;;7405478;19;20014;-85
2022/07/06 07:27:55;;;;;;;7.57;2.47;;;23.40;46.20;;;;;;7404839;19;20051;-88
2022/07/06 07:33:00;;;;;;;5.32;2.20;;;23.40;46.40;;;;;;7384227;19;20250;-91
2022/07/06 07:35:32;;;;;;;5.22;2.17;;;23.40;45.70;;;;;;7413204;19;20018;-88
2022/07/06 07:38:00;;;;;;;11.23;2.58;;;23.50;45.30;;;;;;7405097;19;20119;-85
2022/07/06 07:40:29;;;;;;;8.93;2.63;;;23.50;45.10;;;;;;7398181;19;20442;-85
2022/07/06 07:42:58;;;;;;;5.22;2.50;;;23.50;45.20;;;;;;7397873;19;20372;-87
2022/07/06 07:45:27;;;;;;;7.38;2.10;;;23.50;45.30;;;;;;7402631;19;20019;-85
2022/07/06 07:47:56;;;;;;;8.38;2.38;;;23.50;45.50;;;;;;7400259;19;20022;-85
2022/07/06 07:50:26;;;;;;;7.72;2.05;;;23.60;45.60;;;;;;7401359;19;20098;-87
2022/07/06 07:52:58;;;;;;;5.70;1.73;;;23.60;45.30;;;;;;7401945;19;20015;-87
2022/07/06 07:55:26;;;;;;;;;;;23.60;45.40;;;;;;7401742;19;20039;-87
2022/07/06 07:57:55;;;;;;;5.38;2.22;;;23.70;45.60;;;;;;7417675;19;19915;-88
2022/07/06 08:00:25;;;;;;;6.47;2.22;;;23.70;45.20;;;;;;7415315;19;20010;-87
2022/07/06 08:02:54;;;;;;;7.18;2.50;;;23.70;45.40;;;;;;7406126;19;20019;-86
2022/07/06 08:05:23;;;;;;;5.50;2.13;;;23.70;45.40;;;;;;7404410;19;20022;-86
2022/07/06 08:07:52;;;;;;;11.75;2.60;;;23.80;45.20;;;;;;7401698;19;20035;-86
2022/07/06 08:10:23;;;;;;;8.15;2.65;;;23.80;45.30;;;;;;7401118;19;20031;-85
2022/07/06 08:12:52;;;;;;;7.82;2.25;;;23.70;45.20;;;;;;7403284;19;20489;-88
2022/07/06 08:15:21;;;;;;;6.65;2.05;;;23.70;45.10;;;;;;7406164;19;20015;-89
2022/07/06 08:17:50;;;;;;;5.15;2.28;;;23.70;45.20;;;;;;7416684;19;20722;-88
2022/07/06 08:20:19;;;;;;;5.00;1.80;;;23.60;45.20;;;;;;7405440;19;20018;-89
2022/07/06 08:22:47;;;;;;;5.30;1.98;;;23.60;45.30;;;;;;7406222;19;20014;-86
2022/07/06 08:25:16;;;;;;;4.03;1.50;;;23.50;45.60;;;;;;7403864;19;20039;-87
2022/07/06 08:27:48;;;;;;;6.32;2.20;;;23.40;45.90;;;;;;7410831;19;20015;-88
2022/07/06 08:30:16;;;;;;;;;;;23.20;45.90;;;;;;7408685;19;20042;-89
2022/07/06 08:32:46;;;;;;;6.65;2.13;;;23.20;45.60;;;;;;7404343;19;19910;-87
2022/07/06 08:35:15;;;;;;;4.20;1.75;;;23.30;45.60;;;;;;7403779;19;20560;-87
2022/07/06 08:37:44;;;;;;;6.80;1.95;;;23.20;45.90;;;;;;7400981;19;20075;-85
2022/07/06 08:40:13;;;;;;;9.10;2.25;;;23.30;46.10;;;;;;7403606;19;20039;-88
2022/07/06 08:42:41;;;;;;;6.63;1.60;;;23.30;46.10;;;;;;7415123;19;20018;-89
2022/07/06 08:45:13;;;;;;;7.57;2.05;;;23.40;46.00;;;;;;7419670;19;20025;-85
2022/07/06 08:47:51;;;;;;;6.25;2.10;;;23.60;46.10;;;;;;7404595;19;20018;-87
2022/07/06 08:50:21;;;;;;;8.13;2.10;;;23.60;46.00;;;;;;7407582;19;20006;-85
2022/07/06 08:52:50;;;;;;;7.22;2.15;;;23.50;44.90;;;;;;7427909;19;20038;-85
2022/07/06 08:55:20;;;;;;;5.20;1.55;;;23.50;45.30;;;;;;7416429;19;20035;-87
2022/07/06 08:57:49;;;;;;;4.28;2.00;;;23.40;45.60;;;;;;7408310;19;20019;-86
2022/07/06 09:00:21;;;;;;;6.75;1.80;;;23.50;45.80;;;;;;7399476;19;20071;-88
2022/07/06 09:02:55;;;;;;;5.75;2.00;;;23.00;45.70;;;;;;7400772;19;20587;-86
2022/07/06 09:05:25;;;;;;;4.78;1.92;;;23.30;46.20;;;;;;7400822;19;20018;-88
2022/07/06 09:07:55;;;;;;;4.18;2.05;;;23.50;46.10;;;;;;7399117;19;20027;-87
2022/07/06 09:10:26;;;;;;;6.30;2.53;;;23.70;45.70;;;;;;7404971;19;20011;-87
2022/07/06 09:12:55;;;;;;;5.95;2.05;;;23.70;45.50;;;;;;7407198;19;20015;-89
2022/07/06 09:15:31;;;;;;;7.38;1.70;;;23.70;45.20;;;;;;7404276;19;20022;-89
2022/07/06 09:18:00;;;;;;;4.35;1.63;;;23.80;44.80;;;;;;7402557;19;20007;-85
2022/07/06 09:20:29;;;;;;;6.22;1.90;;;23.90;44.90;;;;;;7403319;19;20087;-89
2022/07/06 09:23:02;;;;;;;4.35;1.85;;;24.00;44.20;;;;;;7404217;19;20018;-89
2022/07/06 09:25:32;;;;;;;6.10;1.90;;;23.70;44.10;;;;;;7401437;19;20022;-87
2022/07/06 09:28:01;;;;;;;9.02;1.98;;;23.70;44.10;;;;;;7395190;19;20006;-86
2022/07/06 09:30:33;;;;;;;5.68;2.05;;;23.90;43.90;;;;;;7396402;19;20035;-86
2022/07/06 09:33:02;;;;;;;7.65;2.05;;;24.00;44.20;;;;;;7395959;19;20086;-85
2022/07/06 09:35:33;;;;;;;3.72;1.70;;;24.10;44.50;;;;;;7394952;19;20018;-84
2022/07/06 09:38:09;;;;;;;4.47;1.60;;;24.00;43.40;;;;;;7403050;19;20026;-85
2022/07/06 09:40:40;;;;;;;2.65;1.38;;;24.10;43.40;;;;;;7403296;19;20022;-85
2022/07/06 09:43:16;;;;;;;3.55;1.65;;;24.00;42.10;;;;;;7403813;19;20027;-85
2022/07/06 09:45:51;;;;;;;3.95;1.55;;;24.10;42.50;;;;;;7409145;19;20106;-85
2022/07/06 09:48:21;;;;;;;4.88;1.70;;;24.10;42.90;;;;;;7408672;19;20027;-85
2022/07/06 09:50:53;;;;;;;4.67;1.47;;;24.10;43.20;;;;;;7407747;19;20385;-86
2022/07/06 09:53:23;;;;;;;4.72;1.50;;;24.20;43.00;;;;;;7413113;19;20025;-86
2022/07/06 09:55:53;;;;;;;2.20;1.45;;;24.30;42.60;;;;;;7408384;19;20034;-86
2022/07/06 09:58:23;;;;;;;4.55;1.75;;;24.40;42.80;;;;;;7411156;19;20021;-88
2022/07/06 10:00:54;;;;;;;1.88;1.20;;;24.40;42.60;;;;;;7414621;19;20026;-86
2022/07/06 10:03:23;;;;;;;;;;;24.50;42.60;;;;;;7411886;19;20018;-86
2022/07/06 10:05:52;;;;;;;3.28;1.20;;;24.60;42.00;;;;;;7414977;19;19917;-89
2022/07/06 10:08:22;;;;;;;5.25;2.10;;;24.70;42.40;;;;;;7412240;19;20018;-85
2022/07/06 10:10:51;;;;;;;5.75;2.00;;;24.50;42.00;;;;;;7407988;19;20624;-86
2022/07/06 10:13:24;;;;;;;7.80;2.10;;;24.40;42.70;;;;;;7411752;19;20117;-87
2022/07/06 10:15:57;;;;;;;3.65;1.70;;;24.50;42.60;;;;;;7403446;19;20372;-86
2022/07/06 10:18:27;;;;;;;4.38;1.83;;;24.40;42.70;;;;;;7405143;19;20023;-86
2022/07/06 10:20:56;;;;;;;5.30;1.52;;;24.60;42.70;;;;;;7400524;19;20022;-88
2022/07/06 10:23:27;;;;;;;3.95;1.48;;;24.60;42.20;;;;;;7401750;19;20078;-87
2022/07/06 10:25:57;;;;;;;3.08;1.58;;;24.50;42.10;;;;;;7403321;19;20043;-88
2022/07/06 10:28:27;;;;;;;6.10;1.88;;;24.60;42.00;;;;;;7406521;19;20015;-88
2022/07/06 10:31:07;;;;;;;4.88;1.63;;;24.70;41.90;;;;;;7404708;19;20018;-87
2022/07/06 10:33:36;;;;;;;6.47;2.40;;;24.70;42.20;;;;;;7406841;19;20018;-86
2022/07/06 10:36:06;;;;;;;3.65;1.70;;;24.70;42.50;;;;;;7421339;19;20099;-86
2022/07/06 10:38:36;;;;;;;8.27;2.13;;;24.90;42.60;;;;;;7430119;19;20026;-88
2022/07/06 10:41:03;;;;;;;4.72;1.83;;;24.70;42.00;;;;;;7433320;19;20011;-87
2022/07/06 10:43:36;;;;;;;3.78;1.50;;;24.60;41.50;;;;;;7434741;19;20011;-88
2022/07/06 10:46:12;;;;;;;2.80;1.50;;;24.50;41.40;;;;;;7416476;19;20018;-89
2022/07/06 10:48:42;;;;;;;4.18;1.70;;;24.60;41.10;;;;;;7416658;19;20023;-87
2022/07/06 10:51:13;;;;;;;3.92;1.55;;;24.90;41.30;;;;;;7403467;19;20015;-86
2022/07/06 10:53:44;;;;;;;3.60;1.70;;;24.80;41.90;;;;;;7405948;19;20018;-87
2022/07/06 10:56:14;;;;;;;2.25;1.60;;;24.80;41.70;;;;;;7404854;19;20079;-86
2022/07/06 10:58:50;;;;;;;2.70;1.58;;;25.00;40.80;;;;;;7411599;19;20017;-89
2022/07/06 11:01:23;;;;;;;3.22;1.70;;;25.10;40.60;;;;;;7415874;19;20018;-89
2022/07/06 11:04:06;;;;;;;7.05;1.90;;;25.20;40.90;;;;;;7425569;19;20031;-87
2022/07/06 11:06:37;;;;;;;7.97;2.05;;;25.30;40.40;;;;;;7433361;19;20006;-90
2022/07/06 11:09:07;;;;;;;10.57;2.30;;;25.40;40.80;;;;;;7416621;19;20019;-88
2022/07/06 11:11:47;;;;;;;4.77;1.80;;;25.40;41.00;;;;;;7418575;19;20033;-90
2022/07/06 11:14:17;;;;;;;3.22;1.92;;;25.40;40.80;;;;;;7408037;19;20279;-88
2022/07/06 11:17:12;;;;;;;2.85;1.75;;;25.60;41.40;;;;;;7407136;19;20146;-86
2022/07/06 11:19:51;;;;;;;4.25;1.80;;;25.60;40.90;;;;;;7403319;19;20019;-87
2022/07/06 11:22:21;;;;;;;3.92;2.08;;;25.60;40.70;;;;;;7402587;19;20475;-85
2022/07/06 11:24:56;;;;;;;4.35;2.15;;;25.70;41.00;;;;;;7404148;19;20109;-86
2022/07/06 11:27:26;;;;;;;6.60;2.33;;;25.70;40.40;;;;;;7421528;19;20009;-89
2022/07/06 11:29:57;;;;;;;4.68;1.75;;;25.80;40.40;;;;;;7420636;19;20010;-91
2022/07/06 11:32:31;;;;;;;4.78;2.22;;;25.80;40.80;;;;;;7417991;19;20023;-91
2022/07/06 11:37:35;;;;;;;5.00;2.17;;;25.40;40.30;;;;;;7394514;19;20045;-88
2022/07/06 11:40:10;;;;;;;4.30;2.00;;;25.40;41.00;;;;;;7400147;19;20090;-84
2022/07/06 11:42:40;;;;;;;9.98;2.20;;;25.50;40.60;;;;;;7399676;19;20018;-84
2022/07/06 11:45:10;;;;;;;4.68;2.47;;;25.70;40.50;;;;;;7398870;19;20028;-85
2022/07/06 11:47:41;;;;;;;5.68;2.75;;;25.80;39.70;;;;;;7400243;19;20034;-85
2022/07/06 11:50:11;;;;;;;7.63;2.53;;;25.90;40.20;;;;;;7399427;19;20006;-86
2022/07/06 11:52:40;;;;;;;3.90;2.63;;;26.10;40.60;;;;;;7396315;19;20010;-87
2022/07/06 11:55:09;;;;;;;4.03;2.55;;;26.30;40.30;;;;;;7400641;19;20446;-83
2022/07/06 11:57:38;;;;;;;4.70;2.65;;;26.30;40.10;;;;;;7397008;19;20441;-85
2022/07/06 12:00:08;;;;;;;9.50;3.28;;;26.50;40.40;;;;;;7396371;19;20019;-85
2022/07/06 12:02:43;;;;;;;8.88;2.90;;;26.60;40.10;;;;;;7401707;19;20022;-87
2022/07/06 12:05:12;;;;;;;7.18;3.03;;;26.50;39.40;;;;;;7396676;19;20054;-87
2022/07/06 12:07:40;;;;;;;6.13;3.33;;;26.40;39.60;;;;;;7403185;19;20467;-86
2022/07/06 12:10:11;;;;;;;6.50;3.20;;;26.50;39.90;;;;;;7412383;19;20007;-87
2022/07/06 12:12:39;;;;;;;4.25;3.10;;;26.50;39.80;;;;;;7405393;19;20010;-85
2022/07/06 12:15:09;;;;;;;8.00;3.22;;;26.60;39.70;;;;;;7402129;19;20023;-86
2022/07/06 12:17:43;;;;;;;6.05;2.65;;;26.60;39.70;;;;;;7397916;19;20094;-84
2022/07/06 12:20:14;;;;;;;9.25;2.60;;;26.70;39.80;;;;;;7396733;19;20054;-83
2022/07/06 12:22:45;;;;;;;6.35;2.38;;;26.80;38.90;;;;;;7400412;19;20015;-88
2022/07/06 12:25:14;;;;;;;4.10;2.55;;;26.90;39.10;;;;;;7401204;19;20007;-88
2022/07/06 12:27:43;;;;;;;3.95;2.40;;;27.00;39.40;;;;;;7400406;19;20462;-87
2022/07/06 12:30:13;;;;;;;4.93;2.70;;;27.00;39.80;;;;;;7402618;19;20054;-86
2022/07/06 12:32:42;;;;;;;4.75;2.47;;;27.10;39.40;;;;;;7395350;19;20020;-85
2022/07/06 12:35:15;;;;;;;5.10;2.50;;;27.10;39.20;;;;;;7397775;19;20030;-86
2022/07/06 12:37:57;;;;;;;5.90;3.00;;;27.00;39.40;;;;;;7401385;19;20580;-88
2022/07/06 12:40:29;;;;;;;4.32;2.70;;;26.90;39.40;;;;;;7403848;19;20082;-87
2022/07/06 12:42:58;;;;;;;6.05;2.30;;;26.80;39.50;;;;;;7402045;19;20014;-87
2022/07/06 12:45:30;;;;;;;3.13;2.10;;;26.70;39.50;;;;;;7401547;19;20015;-83
2022/07/06 12:48:03;;;;;;;6.53;2.05;;;26.70;39.90;;;;;;7412182;19;20014;-84
2022/07/06 12:50:40;;;;;;;5.80;2.38;;;26.60;40.40;;;;;;7421002;19;20011;-84
2022/07/06 12:53:27;;;;;;;6.47;2.25;;;26.70;39.90;;;;;;7411167;19;20041;-86
2022/07/06 12:56:11;;;;;;;5.85;2.35;;;26.80;39.30;;;;;;7419578;19;20018;-87
2022/07/06 12:58:40;;;;;;;5.30;2.25;;;26.90;38.50;;;;;;7410244;19;20006;-86
2022/07/06 13:03:47;;;;;;;5.60;2.08;;;26.90;38.40;;;;;;7406002;19;20011;-91
2022/07/06 13:06:31;;;;;;;5.25;2.13;;;26.70;39.20;;;;;;7392564;19;20017;-90
2022/07/06 13:11:29;;;;;;;10.48;1.90;;;26.40;39.80;;;;;;7429921;19;20011;-88
2022/07/06 13:13:57;;;;;;;4.35;2.13;;;26.50;40.20;;;;;;7422361;19;20018;-88
2022/07/06 13:16:31;;;;;;;3.67;1.80;;;26.50;39.50;;;;;;7424199;19;20015;-89
2022/07/06 13:19:00;;;;;;;2.67;1.90;;;26.60;40.00;;;;;;7422000;19;20019;-89
2022/07/06 13:21:35;;;;;;;2.53;2.03;;;26.80;39.10;;;;;;7421216;19;20038;-90